createdAt,value
2022-11-15T00:01:14.082Z,9.30
2022-11-15T00:07:54.464Z,9.30
2022-11-15T00:14:14.411Z,9.20
2022-11-15T00:20:35.129Z,9.20
2022-11-15T00:26:55.465Z,9.30
2022-11-15T00:33:16.369Z,9.40
2022-11-15T00:39:36.731Z,9.50
2022-11-15T00:45:57.509Z,9.50
2022-11-15T00:52:17.967Z,9.60
2022-11-15T00:58:38.449Z,9.80
2022-11-15T01:04:59.137Z,9.90
2022-11-15T01:11:19.596Z,10.00
2022-11-15T01:17:40.075Z,10.00
2022-11-15T01:24:00.738Z,10.00
2022-11-15T01:30:21.190Z,10.10
2022-11-15T01:36:41.812Z,10.20
2022-11-15T01:43:27.983Z,10.30
2022-11-15T01:49:55.789Z,10.40
2022-11-15T01:56:24.127Z,10.60
2022-11-15T02:02:44.534Z,10.60
2022-11-15T02:09:05.554Z,10.60
2022-11-15T02:15:29.565Z,10.60
2022-11-15T02:43:08.551Z,10.00
2022-11-15T02:49:32.362Z,9.80
2022-11-15T02:55:54.442Z,9.80
2022-11-15T03:02:29.175Z,9.80
2022-11-15T03:09:03.901Z,9.70
2022-11-15T03:15:36.739Z,9.80
2022-11-15T03:22:00.973Z,9.80
2022-11-15T03:28:29.359Z,9.80
2022-11-15T03:35:05.138Z,9.60
2022-11-15T03:41:38.461Z,9.50
2022-11-15T03:48:01.997Z,9.40
2022-11-15T03:54:22.384Z,9.30
2022-11-15T04:00:42.983Z,9.30
2022-11-15T04:07:03.686Z,9.30
2022-11-15T04:13:24.243Z,9.30
2022-11-15T04:20:03.323Z,9.30
2022-11-15T04:26:24.571Z,9.10
2022-11-15T04:32:44.901Z,8.90
2022-11-15T04:39:05.608Z,8.80
2022-11-15T04:45:26.041Z,8.70
2022-11-15T04:51:47.623Z,8.50
2022-11-15T04:58:10.508Z,8.40
2022-11-15T05:04:30.681Z,8.40
2022-11-15T05:10:51.377Z,8.40
2022-11-15T05:17:11.629Z,8.40
2022-11-15T05:23:32.438Z,8.30
2022-11-15T05:29:53.488Z,8.20
2022-11-15T05:36:21.502Z,8.10
2022-11-15T05:42:41.911Z,8.10
2022-11-15T05:49:02.615Z,8.20
2022-11-15T05:55:23.127Z,8.10
2022-11-15T06:01:43.723Z,8.00
2022-11-15T06:08:04.396Z,8.20
2022-11-15T06:14:24.696Z,8.50
2022-11-15T06:20:45.238Z,8.90
2022-11-15T06:27:05.837Z,9.30
2022-11-15T06:33:26.494Z,9.50
2022-11-15T06:39:46.876Z,9.60
2022-11-15T06:46:07.938Z,9.60
2022-11-15T06:52:33.414Z,9.70
2022-11-15T06:58:53.822Z,9.80
2022-11-15T07:05:15.200Z,9.80
2022-11-15T07:11:35.512Z,9.90
2022-11-15T07:17:56.041Z,9.90
2022-11-15T07:24:16.540Z,9.90
2022-11-15T07:30:40.044Z,9.80
2022-11-15T07:37:04.537Z,9.60
2022-11-15T07:43:25.141Z,9.60
2022-11-15T07:49:47.020Z,9.60
2022-11-15T07:56:08.753Z,9.50
2022-11-15T08:02:30.560Z,9.50
2022-11-15T08:08:50.913Z,9.70
2022-11-15T08:15:11.535Z,9.70
2022-11-15T08:21:32.049Z,9.60
2022-11-15T08:27:54.258Z,9.50
2022-11-15T08:34:14.823Z,9.50
2022-11-15T08:40:35.908Z,9.50
2022-11-15T08:46:56.274Z,9.60
2022-11-15T08:53:16.891Z,9.70
2022-11-15T08:59:38.028Z,10.00
2022-11-15T09:06:00.548Z,10.30
2022-11-15T09:12:20.855Z,10.50
2022-11-15T09:18:41.261Z,10.70
2022-11-15T09:25:02.023Z,10.90
2022-11-15T09:31:22.540Z,11.10
2022-11-15T09:37:43.202Z,11.20
2022-11-15T09:44:25.675Z,11.40
2022-11-15T09:50:51.736Z,11.60
2022-11-15T09:56:56.608Z,11.80
2022-11-15T10:03:34.684Z,12.00
2022-11-15T10:09:51.355Z,12.20
2022-11-15T10:15:55.688Z,12.30
2022-11-15T10:22:09.485Z,12.40
2022-11-15T10:28:17.868Z,12.70
2022-11-15T10:34:22.945Z,13.10
2022-11-15T10:40:25.765Z,13.50
2022-11-15T10:52:49.659Z,13.60
2022-11-15T10:58:56.963Z,13.50
2022-11-15T11:04:59.789Z,13.40
2022-11-15T11:11:04.176Z,13.30
2022-11-15T11:17:37.344Z,13.50
2022-11-15T11:23:45.766Z,13.90
2022-11-15T11:29:58.586Z,14.10
2022-11-15T11:36:27.184Z,14.50
2022-11-15T11:42:40.966Z,14.30
2022-11-15T11:48:52.699Z,14.10
2022-11-15T11:55:21.001Z,14.00
2022-11-15T12:01:42.855Z,14.00
2022-11-15T12:07:47.946Z,14.00
2022-11-15T12:13:56.562Z,14.00
2022-11-15T12:20:00.060Z,14.00
2022-11-15T12:26:13.665Z,14.10
2022-11-15T12:32:34.298Z,14.30
2022-11-15T12:39:04.168Z,14.50
2022-11-15T12:45:32.599Z,14.40
2022-11-15T12:51:43.689Z,14.50
2022-11-15T12:57:45.723Z,14.40
2022-11-15T13:04:13.930Z,14.30
2022-11-15T13:10:28.100Z,14.20
2022-11-15T13:16:30.322Z,14.20
2022-11-15T13:22:51.722Z,14.00
2022-11-15T13:28:55.824Z,13.90
2022-11-15T13:34:57.699Z,13.90
2022-11-15T13:41:01.053Z,13.70
2022-11-15T13:47:07.785Z,13.60
2022-11-15T13:53:10.912Z,13.40
2022-11-15T13:59:23.068Z,13.30
2022-11-15T14:05:26.060Z,13.30
2022-11-15T14:11:28.874Z,13.40
2022-11-15T14:17:30.808Z,13.50
2022-11-15T14:23:32.709Z,13.40
2022-11-15T14:29:34.545Z,13.20
2022-11-15T14:35:39.768Z,13.00
2022-11-15T14:41:41.661Z,12.80
2022-11-15T14:47:44.485Z,12.80
2022-11-15T14:53:47.594Z,12.60
2022-11-15T14:59:52.015Z,12.50
2022-11-15T15:05:56.522Z,12.20
2022-11-15T15:12:04.890Z,12.10
2022-11-15T15:18:09.862Z,12.00
2022-11-15T15:24:16.178Z,12.00
2022-11-15T15:30:18.289Z,11.90
2022-11-15T15:36:20.387Z,11.90
2022-11-15T15:42:23.605Z,11.80
2022-11-15T15:48:25.514Z,11.70
2022-11-15T15:54:27.333Z,11.70
2022-11-15T16:00:29.564Z,11.50
2022-11-15T16:06:41.339Z,11.20
2022-11-15T16:12:43.190Z,11.00
2022-11-15T16:18:45.136Z,10.80
2022-11-15T16:24:47.031Z,10.60
2022-11-15T16:30:59.573Z,10.70
2022-11-15T16:37:01.442Z,10.60
2022-11-15T16:43:04.528Z,10.70
2022-11-15T16:49:08.732Z,10.80
2022-11-15T16:55:10.571Z,10.70
2022-11-15T17:01:23.120Z,10.70
2022-11-15T17:07:25.400Z,10.80
2022-11-15T17:13:27.375Z,10.80
2022-11-15T17:19:29.260Z,10.90
2022-11-15T17:25:31.087Z,10.90
2022-11-15T17:31:34.077Z,11.00
2022-11-15T17:37:36.530Z,11.10
2022-11-15T17:43:39.005Z,11.10
2022-11-15T17:49:41.093Z,11.20
2022-11-15T17:55:42.942Z,11.20
2022-11-15T18:01:44.772Z,11.20
2022-11-15T18:07:46.538Z,11.30
2022-11-15T18:13:52.530Z,11.30
2022-11-15T18:19:54.594Z,11.30
2022-11-15T18:25:56.549Z,11.30
2022-11-15T18:31:59.004Z,11.30
2022-11-15T18:38:00.935Z,11.20
2022-11-15T18:44:03.415Z,11.10
2022-11-15T18:50:05.728Z,11.20
2022-11-15T18:56:10.093Z,11.20
2022-11-15T19:02:12.927Z,11.20
2022-11-15T19:08:15.009Z,11.10
2022-11-15T19:14:17.943Z,11.10
2022-11-15T19:20:20.698Z,11.20
2022-11-15T19:26:23.848Z,11.10
2022-11-15T19:32:25.863Z,11.10
2022-11-15T19:38:27.924Z,11.00
2022-11-15T19:44:29.748Z,11.00
2022-11-15T19:50:31.698Z,11.10
2022-11-15T19:56:34.717Z,11.10
2022-11-15T20:02:36.722Z,11.10
2022-11-15T20:08:38.814Z,11.20
2022-11-15T20:14:40.678Z,11.30
2022-11-15T20:20:43.290Z,11.40
2022-11-15T20:26:46.866Z,11.40
2022-11-15T20:32:49.320Z,11.30
2022-11-15T20:38:55.930Z,11.20
2022-11-15T20:44:57.997Z,11.10
2022-11-15T20:51:09.887Z,11.10
2022-11-15T20:57:11.824Z,11.10
2022-11-15T21:03:14.861Z,11.00
2022-11-15T21:09:35.317Z,11.00
2022-11-15T21:15:37.146Z,11.00
2022-11-15T21:21:38.971Z,10.90
2022-11-15T21:27:41.023Z,10.90
2022-11-15T21:33:42.990Z,10.90
2022-11-15T21:39:44.822Z,10.80
2022-11-15T21:45:56.902Z,10.80
2022-11-15T21:51:58.754Z,10.80
2022-11-15T21:58:00.593Z,10.90
2022-11-15T22:04:02.673Z,10.90
2022-11-15T22:10:04.968Z,10.80
2022-11-15T22:16:07.607Z,10.80
2022-11-15T22:22:09.741Z,10.90
2022-11-15T22:28:11.646Z,11.00
2022-11-15T22:34:13.524Z,11.00
2022-11-15T22:40:45.599Z,11.00
2022-11-15T22:46:47.502Z,11.10
2022-11-15T22:52:49.828Z,11.00
2022-11-15T22:58:51.689Z,11.00
2022-11-15T23:04:53.542Z,11.00
2022-11-15T23:11:13.700Z,11.10
2022-11-15T23:17:16.238Z,11.10
2022-11-15T23:23:18.113Z,11.10
2022-11-15T23:29:21.880Z,11.00
2022-11-15T23:35:23.769Z,11.00
2022-11-15T23:41:25.803Z,10.80
2022-11-15T23:47:27.900Z,10.70
2022-11-15T23:53:29.821Z,10.60
2022-11-15T23:59:31.710Z,10.50
